Terminal Aerodrome Forecast
Issued by NWS Twin Cities, MN

Home | Current Version | Previous Version | Graphics & Text | Print | Product List | Glossary On
Versions: 1 2 3 4 5 6 7 8 9 10 11 12 13 14 15 16 17 18 19 20 21 22 23 24 25 26 27
172
FTUS43 KMPX 311455 AAA
TAFMSP
TAF AMD
KMSP 311455Z 3115/0118 34007KT P6SM SKC
     FM010100 04004KT P6SM SKC
     FM011600 07005KT P6SM SCT045=

USA.gov is the U.S. government's official web portal to all federal, state and local government web resources and services.